Milan, Pennsylvania
Current Conditions -  °F | °C
As of 3:53 AM on Sunday 26 Oct 2014 (Local Time) from KELM Reporting Station
Clear Clear  
Wind Chill:   Ceiling: Unl
Heat Index:   Visibility: 10mi
Dew Point:   Wind: 7mph
Humidity: 74%   Direction: 280°W
Pressure: 29.64"   Gusts: NA
Location:  41.91°N, 76.52°W
Report Text: KELM 260753Z AUTO 28006KT 10SM CLR 08/04 A2964 RMK AO2 SLP036 T00830039
Loading
Personal Weather Stations






























Interactive Weather Map
Tropical Storm Tracking
New forecast layout! Learn more

10-Day Weather Forecast

Advertisements
Track Severe Weather on mobile